Time;durP1;ratioP1;P1;durP2;ratioP2;P2;SDS_P1;SDS_P2;PMS_P1;PMS_P2;Temp;Humidity;BMP_temperature;BMP_pressure;BME280_temperature;BME280_humidity;BME280_pressure;Samples;Min_cycle;Max_cycle;Signal;HPM_P1;HPM_P2
2021/12/13 00:01:00;;;;;;;36.58;25.40;;;;;;;8.85;100.00;102453.84;5029530;28;20049;-63
2021/12/13 00:03:40;;;;;;;35.75;25.88;;;;;;;8.88;100.00;102452.75;5028507;28;20041;-63
2021/12/13 00:06:10;;;;;;;35.53;25.23;;;;;;;8.82;100.00;102445.25;5021203;28;20542;-63
2021/12/13 00:08:39;;;;;;;35.45;24.80;;;;;;;8.87;100.00;102445.75;5028898;28;20053;-63
2021/12/13 00:11:11;;;;;;;37.35;25.20;;;;;;;8.84;100.00;102446.00;5028528;28;20143;-63
2021/12/13 00:13:41;;;;;;;35.20;24.70;;;;;;;8.81;100.00;102451.50;5030117;28;20048;-63
2021/12/13 00:16:08;;;;;;;36.63;24.55;;;;;;;8.80;100.00;102449.81;5027707;28;20025;-63
2021/12/13 00:18:38;;;;;;;35.70;24.67;;;;;;;8.75;100.00;102443.03;5028991;28;20049;-62
2021/12/13 00:21:14;;;;;;;35.28;23.45;;;;;;;8.78;100.00;102451.72;5028817;28;20057;-62
2021/12/13 00:23:46;;;;;;;33.47;23.33;;;;;;;8.81;100.00;102444.41;5028072;28;20513;-63
2021/12/13 00:26:21;;;;;;;34.58;23.33;;;;;;;8.75;100.00;102443.03;5031407;28;20033;-61
2021/12/13 00:28:47;;;;;;;35.05;23.00;;;;;;;8.75;100.00;102442.22;5028539;28;20030;-62
2021/12/13 00:31:26;;;;;;;34.65;23.08;;;;;;;8.75;100.00;102453.63;5033352;28;20037;-63
2021/12/13 00:34:01;;;;;;;31.30;22.38;;;;;;;8.72;100.00;102453.00;5034126;28;20071;-63
2021/12/13 00:36:38;;;;;;;31.40;21.50;;;;;;;8.72;100.00;102450.34;5031259;28;20076;-63
2021/12/13 00:39:20;;;;;;;33.42;22.15;;;;;;;8.70;100.00;102441.69;5032891;28;20536;-62
2021/12/13 00:41:49;;;;;;;32.58;21.23;;;;;;;8.69;100.00;102454.06;5024837;28;20025;-63
2021/12/13 00:44:19;;;;;;;30.15;20.60;;;;;;;8.68;100.00;102456.84;5032992;28;20029;-63
2021/12/13 00:46:47;;;;;;;31.70;21.08;;;;;;;8.66;100.00;102464.88;5033065;28;20033;-63
2021/12/13 00:49:16;;;;;;;31.23;21.83;;;;;;;8.64;100.00;102461.50;5030804;28;20467;-62
2021/12/13 00:51:45;;;;;;;31.92;21.65;;;;;;;8.62;100.00;102458.09;5027403;28;20044;-63
2021/12/13 00:54:16;;;;;;;35.28;22.65;;;;;;;8.65;100.00;102463.19;5032696;28;20021;-63
2021/12/13 00:56:49;;;;;;;34.88;22.52;;;;;;;8.66;100.00;102470.16;5027699;28;20053;-63
2021/12/13 00:59:37;;;;;;;34.05;22.88;;;;;;;8.63;100.00;102458.97;5033509;28;20025;-63
2021/12/13 01:02:10;;;;;;;36.08;23.58;;;;;;;8.63;100.00;102467.72;5034166;28;20079;-63
2021/12/13 01:05:12;;;;;;;35.45;23.25;;;;;;;8.66;100.00;102467.50;5034191;28;20414;-63
2021/12/13 01:07:59;;;;;;;37.35;23.90;;;;;;;8.64;100.00;102472.06;5026678;28;20071;-63
2021/12/13 01:10:52;;;;;;;36.25;22.77;;;;;;;8.68;100.00;102473.53;5024593;28;20037;-63
2021/12/13 01:13:28;;;;;;;37.47;23.27;;;;;;;8.62;100.00;102479.25;5033302;28;20079;-64
2021/12/13 01:16:09;;;;;;;36.28;22.90;;;;;;;8.56;100.00;102466.47;5033686;28;20064;-63
2021/12/13 01:19:24;;;;;;;36.20;22.83;;;;;;;8.58;100.00;102480.41;5030075;28;20151;-63
2021/12/13 01:22:27;;;;;;;36.10;23.55;;;;;;;8.60;100.00;102481.16;5033727;28;20045;-63
2021/12/13 01:27:34;;;;;;;35.75;23.38;;;;;;;8.55;100.00;102478.00;5032543;28;20045;-63
2021/12/13 01:30:00;;;;;;;38.78;23.77;;;;;;;8.54;100.00;102486.88;5033581;28;20057;-63
2021/12/13 01:32:46;;;;;;;36.38;23.63;;;;;;;8.51;100.00;102476.47;5032311;28;20124;-63
2021/12/13 01:35:25;;;;;;;36.10;22.58;;;;;;;8.51;100.00;102487.06;5034453;28;20033;-64
2021/12/13 01:37:53;;;;;;;39.70;24.02;;;;;;;8.51;100.00;102492.34;5031700;28;20029;-62
2021/12/13 01:40:26;;;;;;;37.00;23.77;;;;;;;8.48;100.00;102488.97;5033699;28;20032;-62
2021/12/13 01:43:06;;;;;;;38.63;24.13;;;;;;;8.48;100.00;102490.75;5028217;28;20394;-63
2021/12/13 01:45:35;;;;;;;37.22;23.70;;;;;;;8.44;100.00;102492.78;5032515;28;20025;-63
2021/12/13 01:48:06;;;;;;;39.38;23.75;;;;;;;8.46;100.00;102501.47;5031063;28;20116;-63
2021/12/13 01:50:44;;;;;;;37.97;23.85;;;;;;;8.46;100.00;102501.47;5032983;28;20038;-63
2021/12/13 01:53:10;;;;;;;39.88;24.13;;;;;;;8.46;100.00;102506.75;5030121;28;20094;-63
2021/12/13 01:55:43;;;;;;;40.10;24.73;;;;;;;8.45;100.00;102498.91;5032793;28;20104;-63
2021/12/13 02:01:09;;;;;;;37.67;25.08;;;;;;;8.45;100.00;102502.38;5031828;28;20041;-63
2021/12/13 02:04:03;;;;;;;43.00;24.92;;;;;;;8.44;100.00;102502.53;5027478;28;20049;-63
2021/12/13 02:06:34;;;;;;;;;;;;;;;8.50;100.00;102506.53;5033173;28;20037;-62
2021/12/13 02:09:06;;;;;;;40.28;25.30;;;;;;;8.41;100.00;102508.88;5032292;28;19917;-63
2021/12/13 02:11:38;;;;;;;41.50;25.50;;;;;;;8.42;100.00;102515.84;5031440;28;20436;-63
2021/12/13 02:14:12;;;;;;;40.55;25.48;;;;;;;8.40;100.00;102503.69;5029055;28;20462;-63
2021/12/13 02:20:06;;;;;;;42.10;26.63;;;;;;;8.43;100.00;102501.66;5009311;28;20046;-63
2021/12/13 02:22:38;;;;;;;41.60;25.92;;;;;;;8.43;100.00;102496.38;5031826;28;20527;-63
2021/12/13 02:25:28;;;;;;;44.47;26.27;;;;;;;8.43;100.00;102485.81;5032247;28;20025;-63
2021/12/13 02:28:06;;;;;;;41.10;25.60;;;;;;;8.40;100.00;102491.31;5031415;28;20658;-63
2021/12/13 02:30:47;;;;;;;41.30;25.95;;;;;;;8.38;100.00;102487.91;5033208;28;20032;-63
2021/12/13 02:33:16;;;;;;;41.03;26.42;;;;;;;8.36;100.00;102495.13;5033078;28;20052;-63
2021/12/13 02:35:47;;;;;;;40.97;26.00;;;;;;;8.32;100.00;102488.34;5033638;28;20075;-63
2021/12/13 02:38:16;;;;;;;46.33;26.90;;;;;;;8.33;100.00;102505.88;5031187;28;20111;-63
2021/12/13 02:40:42;;;;;;;41.80;26.23;;;;;;;8.37;100.00;102509.16;5033079;28;20025;-63
2021/12/13 02:43:10;;;;;;;41.25;25.92;;;;;;;8.33;100.00;102498.81;5024315;28;20030;-63
2021/12/13 02:45:44;;;;;;;39.97;25.65;;;;;;;8.33;100.00;102500.59;5029754;28;20037;-63
2021/12/13 02:48:29;;;;;;;40.80;26.85;;;;;;;8.35;100.00;102510.13;5030976;28;20025;-63
2021/12/13 02:51:05;;;;;;;40.45;26.30;;;;;;;8.35;100.00;102504.00;5031298;28;20047;-63
2021/12/13 02:53:38;;;;;;;42.78;27.10;;;;;;;8.34;100.00;102497.84;5031508;28;20041;-63
2021/12/13 02:56:05;;;;;;;40.22;26.30;;;;;;;8.34;100.00;102510.25;5033038;28;20044;-63
2021/12/13 02:58:33;;;;;;;40.78;25.60;;;;;;;8.31;100.00;102506.00;5029653;28;20032;-63
2021/12/13 03:01:08;;;;;;;41.70;26.40;;;;;;;8.32;100.00;102504.19;5028347;28;20034;-63
2021/12/13 03:03:38;;;;;;;44.10;26.08;;;;;;;8.30;100.00;102504.28;5029329;28;20080;-63
2021/12/13 03:06:07;;;;;;;41.00;26.45;;;;;;;8.30;100.00;102498.19;5027391;28;20041;-63
2021/12/13 03:08:39;;;;;;;42.78;26.40;;;;;;;8.28;100.00;102502.72;5030728;28;20037;-62
2021/12/13 03:11:12;;;;;;;41.10;26.27;;;;;;;8.29;100.00;102499.97;5030333;28;20041;-63
2021/12/13 03:13:38;;;;;;;40.30;24.92;;;;;;;8.29;100.00;102509.72;5030107;28;20096;-63
2021/12/13 03:16:17;;;;;;;41.78;25.83;;;;;;;8.27;100.00;102501.88;5028288;28;20601;-63
2021/12/13 03:18:56;;;;;;;43.08;26.40;;;;;;;8.26;100.00;102508.13;5029042;28;20079;-63
2021/12/13 03:21:49;;;;;;;39.15;25.70;;;;;;;8.29;100.00;102504.41;5030944;28;20136;-62
2021/12/13 03:24:29;;;;;;;44.07;26.10;;;;;;;8.26;100.00;102505.47;5028867;28;20042;-63
2021/12/13 03:26:59;;;;;;;40.38;25.52;;;;;;;8.24;100.00;102509.16;5023318;28;20291;-62
2021/12/13 03:29:52;;;;;;;44.20;26.88;;;;;;;8.26;100.00;102507.25;5027143;28;20037;-63
2021/12/13 03:32:20;;;;;;;40.33;25.17;;;;;;;8.24;100.00;102503.88;5030295;28;20389;-63
2021/12/13 03:35:04;;;;;;;41.15;25.40;;;;;;;8.23;100.00;102494.28;5029834;28;20438;-63
2021/12/13 03:37:29;;;;;;;39.25;24.63;;;;;;;8.23;100.00;102508.31;5029643;28;20041;-63
2021/12/13 03:39:59;;;;;;;41.47;26.10;;;;;;;8.20;100.00;102509.38;5030438;28;20038;-63
2021/12/13 03:42:32;;;;;;;42.67;25.50;;;;;;;8.19;100.00;102505.03;5030183;28;20036;-63
2021/12/13 03:45:00;;;;;;;39.60;25.58;;;;;;;8.19;100.00;102505.03;5031633;28;20029;-62
2021/12/13 03:47:36;;;;;;;41.60;25.65;;;;;;;8.21;100.00;102503.13;5031477;28;20048;-62
2021/12/13 03:50:08;;;;;;;43.17;25.52;;;;;;;8.19;100.00;102499.75;5032542;28;20425;-63
2021/12/13 03:52:35;;;;;;;40.42;24.90;;;;;;;8.18;100.00;102503.34;5028813;28;20029;-63
2021/12/13 03:55:04;;;;;;;40.60;25.48;;;;;;;8.14;100.00;102506.31;5030087;28;20060;-63
2021/12/13 03:57:30;;;;;;;41.30;25.83;;;;;;;8.18;100.00;102513.91;5028657;28;20068;-63
2021/12/13 03:59:58;;;;;;;40.08;25.38;;;;;;;8.12;100.00;102506.41;5028159;28;20053;-63
2021/12/13 04:02:31;;;;;;;40.45;25.10;;;;;;;8.17;100.00;102509.59;5030488;28;20040;-63
2021/12/13 04:05:01;;;;;;;43.55;25.75;;;;;;;8.15;100.00;102511.47;5028440;28;20490;-63
2021/12/13 04:07:33;;;;;;;41.67;25.27;;;;;;;8.13;100.00;102505.47;5028286;28;20044;-63
2021/12/13 04:10:05;;;;;;;42.10;25.83;;;;;;;8.11;100.00;102504.72;5027309;28;20108;-63
2021/12/13 04:12:41;;;;;;;40.97;25.00;;;;;;;8.08;100.00;102492.56;5028429;28;20037;-62
2021/12/13 04:15:22;;;;;;;38.78;24.02;;;;;;;8.17;100.00;102509.59;5029245;28;20033;-63
2021/12/13 04:18:00;;;;;;;40.33;24.80;;;;;;;8.14;100.00;102503.69;5029031;28;20037;-63
2021/12/13 04:20:31;;;;;;;40.10;24.20;;;;;;;8.12;100.00;102516.97;5020170;28;20052;-63
2021/12/13 04:23:01;;;;;;;39.67;24.92;;;;;;;8.08;100.00;102512.84;5028707;28;20037;-63
2021/12/13 04:25:33;;;;;;;44.00;25.00;;;;;;;8.12;100.00;102511.69;5029639;28;20366;-63
2021/12/13 04:28:06;;;;;;;38.20;23.75;;;;;;;8.12;100.00;102522.25;5030189;28;20125;-63
2021/12/13 04:30:49;;;;;;;38.70;23.15;;;;;;;8.10;100.00;102521.53;5029893;28;20034;-63
2021/12/13 04:33:54;;;;;;;41.15;24.17;;;;;;;8.15;100.00;102519.41;5026983;28;20033;-63
2021/12/13 04:36:24;;;;;;;40.03;23.92;;;;;;;8.07;100.00;102511.16;4986702;28;20113;-63
2021/12/13 04:38:59;;;;;;;41.45;24.35;;;;;;;8.11;100.00;102525.00;4987424;28;20097;-63
2021/12/13 04:41:39;;;;;;;40.42;24.30;;;;;;;8.12;100.00;102513.47;5010100;28;20045;-63
2021/12/13 04:44:16;;;;;;;38.92;23.83;;;;;;;8.08;100.00;102507.56;5029202;28;20366;-63
2021/12/13 04:46:47;;;;;;;39.65;23.20;;;;;;;8.10;100.00;102516.25;5030849;28;20029;-63
2021/12/13 04:49:17;;;;;;;39.35;23.98;;;;;;;8.05;100.00;102518.34;5030059;28;20138;-63
2021/12/13 04:52:05;;;;;;;41.30;24.15;;;;;;;8.10;100.00;102520.69;5030644;28;20045;-63
2021/12/13 04:54:34;;;;;;;36.58;22.77;;;;;;;8.08;100.00;102524.28;5025918;28;20124;-63
2021/12/13 04:57:00;;;;;;;37.30;23.10;;;;;;;8.10;100.00;102510.97;5029924;28;20029;-63
2021/12/13 04:59:28;;;;;;;37.95;22.27;;;;;;;8.07;100.00;102500.59;5027786;28;20029;-63
2021/12/13 05:01:58;;;;;;;38.40;21.95;;;;;;;8.08;100.00;102502.28;5029414;28;20386;-63
2021/12/13 05:04:25;;;;;;;45.88;23.33;;;;;;;8.06;100.00;102509.47;5027914;28;20107;-63
2021/12/13 05:06:52;;;;;;;36.78;22.05;;;;;;;8.06;100.00;102506.81;5030302;28;20076;-62
2021/12/13 05:09:21;;;;;;;36.42;22.48;;;;;;;8.03;100.00;102509.66;5028819;28;20036;-62
2021/12/13 05:11:49;;;;;;;35.83;21.83;;;;;;;8.06;100.00;102518.22;5031691;28;20466;-63
2021/12/13 05:14:16;;;;;;;34.28;21.38;;;;;;;8.07;100.00;102519.09;5033994;28;20036;-63
2021/12/13 05:16:52;;;;;;;36.08;21.35;;;;;;;8.07;100.00;102521.72;5034280;28;20052;-63
2021/12/13 05:19:29;;;;;;;38.30;21.42;;;;;;;8.08;100.00;102515.47;5034330;28;20059;-63
2021/12/13 05:21:56;;;;;;;36.38;20.50;;;;;;;8.06;100.00;102520.03;5034630;28;20030;-63
2021/12/13 05:24:26;;;;;;;33.67;20.73;;;;;;;8.06;100.00;102525.31;5032834;28;20384;-62
2021/12/13 05:27:04;;;;;;;33.53;20.05;;;;;;;8.08;100.00;102520.78;5033631;28;20029;-63
2021/12/13 05:29:34;;;;;;;32.35;20.52;;;;;;;8.03;100.00;102515.81;5029831;28;20021;-63
2021/12/13 05:32:17;;;;;;;35.28;20.45;;;;;;;8.06;100.00;102517.41;5032444;28;20104;-63
2021/12/13 05:34:48;;;;;;;32.85;20.05;;;;;;;8.05;100.00;102524.47;5032590;28;20045;-63
2021/12/13 05:37:16;;;;;;;32.90;18.88;;;;;;;8.04;100.00;102521.94;5032536;28;20087;-63
2021/12/13 05:40:07;;;;;;;31.17;19.88;;;;;;;8.07;100.00;102516.44;5032125;28;20025;-63
2021/12/13 05:42:37;;;;;;;32.70;19.02;;;;;;;8.03;100.00;102518.44;5030405;28;20489;-63
2021/12/13 05:45:05;;;;;;;30.73;19.27;;;;;;;8.04;100.00;102527.22;5033414;28;20038;-63
2021/12/13 05:47:30;;;;;;;32.85;18.52;;;;;;;8.04;100.00;102521.94;5033717;28;20087;-63
2021/12/13 05:49:56;;;;;;;30.60;18.73;;;;;;;8.04;100.00;102524.59;5032254;28;20045;-63
2021/12/13 05:52:29;;;;;;;31.13;19.02;;;;;;;8.03;100.00;102514.94;5033577;28;20043;-63
2021/12/13 05:55:01;;;;;;;29.38;18.10;;;;;;;7.99;100.00;102521.41;5031626;28;20040;-63
2021/12/13 05:57:30;;;;;;;32.92;18.83;;;;;;;8.02;100.00;102521.19;5018623;28;20029;-63
2021/12/13 06:00:08;;;;;;;29.33;17.95;;;;;;;8.02;100.00;102526.47;5031039;28;20563;-63
2021/12/13 06:02:46;;;;;;;29.20;17.98;;;;;;;8.02;100.00;102532.63;5029663;28;20045;-63
2021/12/13 06:05:18;;;;;;;29.50;17.95;;;;;;;8.00;100.00;102533.66;5032344;28;20044;-64
2021/12/13 06:07:55;;;;;;;33.60;18.67;;;;;;;7.98;100.00;102530.28;5032830;28;20026;-63
2021/12/13 06:10:21;;;;;;;29.60;17.27;;;;;;;8.00;100.00;102531.84;5033601;28;20288;-63
2021/12/13 06:12:59;;;;;;;29.77;18.00;;;;;;;8.01;100.00;102532.72;5030805;28;20112;-63
2021/12/13 06:15:32;;;;;;;27.88;17.55;;;;;;;7.99;100.00;102529.34;5029482;28;20048;-63
2021/12/13 06:18:03;;;;;;;27.92;17.13;;;;;;;7.99;100.00;102529.34;5030014;28;20033;-63
2021/12/13 06:20:39;;;;;;;25.80;16.75;;;;;;;7.96;100.00;102524.25;5031851;28;20072;-63
2021/12/13 06:23:18;;;;;;;26.52;16.73;;;;;;;7.99;100.00;102539.91;5029731;28;20025;-63
2021/12/13 06:25:49;;;;;;;32.15;17.25;;;;;;;7.93;100.00;102530.56;5032434;28;20033;-63
2021/12/13 06:28:22;;;;;;;26.27;16.58;;;;;;;7.98;100.00;102543.50;5021162;28;20040;-63
2021/12/13 06:30:54;;;;;;;30.40;16.77;;;;;;;7.96;100.00;102545.38;5031467;28;20030;-62
2021/12/13 06:33:19;;;;;;;26.77;17.02;;;;;;;7.96;100.00;102540.94;5030748;28;20559;-63
2021/12/13 06:35:52;;;;;;;27.17;16.38;;;;;;;7.95;100.00;102544.53;5032301;28;20025;-63
2021/12/13 06:38:37;;;;;;;26.83;16.27;;;;;;;7.93;100.00;102543.78;5031192;28;20036;-63
2021/12/13 06:41:14;;;;;;;25.08;15.80;;;;;;;7.94;100.00;102553.38;5031435;28;20146;-61
2021/12/13 06:43:47;;;;;;;26.55;16.58;;;;;;;7.94;100.00;102553.38;5028378;28;20021;-63
2021/12/13 06:46:24;;;;;;;27.88;16.02;;;;;;;7.96;100.00;102555.94;5032380;28;20029;-63
2021/12/13 06:48:59;;;;;;;29.38;16.00;;;;;;;7.90;100.00;102546.63;5026370;28;20030;-62
2021/12/13 06:51:58;;;;;;;25.02;15.50;;;;;;;7.96;100.00;102548.88;5025705;28;20067;-63
2021/12/13 06:54:46;;;;;;;25.95;15.48;;;;;;;7.93;100.00;102563.13;5025153;28;20642;-62
2021/12/13 06:57:24;;;;;;;26.15;15.32;;;;;;;7.91;100.00;102557.09;5024598;28;20084;-63
2021/12/13 06:59:54;;;;;;;26.27;15.02;;;;;;;7.93;100.00;102556.97;5025130;28;20481;-59
2021/12/13 07:02:25;;;;;;;25.02;15.55;;;;;;;7.89;100.00;102558.16;5027984;28;20507;-63
2021/12/13 07:04:56;;;;;;;25.65;14.77;;;;;;;7.92;100.00;102564.09;5026870;28;20049;-63
2021/12/13 07:07:30;;;;;;;26.40;15.35;;;;;;;7.91;100.00;102567.66;5023419;28;20049;-63
2021/12/13 07:10:00;;;;;;;26.13;15.07;;;;;;;7.87;100.00;102552.97;5023116;28;20037;-59
2021/12/13 07:12:28;;;;;;;24.10;14.63;;;;;;;7.90;100.00;102568.59;5024457;28;20457;-59
2021/12/13 07:14:54;;;;;;;23.58;15.10;;;;;;;7.90;100.00;102565.97;5024097;28;20112;-60
2021/12/13 07:17:30;;;;;;;23.30;14.73;;;;;;;7.90;100.00;102579.16;5018591;28;20158;-60
2021/12/13 07:19:57;;;;;;;25.70;15.25;;;;;;;7.88;100.00;102575.78;5025822;28;20501;-60
2021/12/13 07:22:29;;;;;;;23.92;15.07;;;;;;;7.88;100.00;102570.50;5022682;28;20033;-59
2021/12/13 07:25:08;;;;;;;24.30;14.95;;;;;;;7.91;100.00;102575.56;5023635;28;20029;-60
2021/12/13 07:27:40;;;;;;;23.33;14.55;;;;;;;7.87;100.00;102579.38;5023473;28;20037;-60
2021/12/13 07:30:11;;;;;;;25.42;15.13;;;;;;;7.88;100.00;102581.06;5024383;28;20125;-60
2021/12/13 07:32:41;;;;;;;25.55;14.63;;;;;;;7.91;100.00;102585.31;5023439;28;20041;-59
2021/12/13 07:35:08;;;;;;;24.25;14.80;;;;;;;7.91;100.00;102580.03;5024225;28;20057;-60
2021/12/13 07:37:35;;;;;;;23.67;14.20;;;;;;;7.89;100.00;102582.75;5026236;28;20021;-59
2021/12/13 07:40:22;;;;;;;23.88;14.38;;;;;;;7.92;100.00;102587.00;5028137;28;20025;-59
2021/12/13 07:43:00;;;;;;;28.25;14.55;;;;;;;7.91;100.00;102586.13;5028137;28;20482;-60
2021/12/13 07:46:05;;;;;;;25.17;14.38;;;;;;;7.93;100.00;102578.97;5025711;28;20124;-60
2021/12/13 07:48:42;;;;;;;24.23;14.57;;;;;;;7.93;100.00;102589.53;5026323;28;20033;-60
2021/12/13 07:51:20;;;;;;;26.00;14.73;;;;;;;7.92;100.00;102590.50;5024788;28;20036;-60
2021/12/13 07:54:08;;;;;;;23.92;14.80;;;;;;;7.93;100.00;102589.53;5025513;28;20029;-60
2021/12/13 07:56:39;;;;;;;27.15;15.23;;;;;;;7.92;100.00;102597.56;5018804;28;20032;-60
2021/12/13 07:59:22;;;;;;;25.35;14.35;;;;;;;7.89;100.00;102598.59;5025783;28;20037;-59
2021/12/13 08:02:10;;;;;;;24.63;14.48;;;;;;;7.90;100.00;102610.88;5024320;28;20064;-60
2021/12/13 08:04:41;;;;;;;23.52;14.70;;;;;;;7.91;100.00;102612.56;5025157;28;20053;-60
2021/12/13 08:07:10;;;;;;;24.50;14.02;;;;;;;7.90;100.00;102605.59;5026604;28;20040;-59
2021/12/13 08:10:01;;;;;;;26.77;15.23;;;;;;;7.91;100.00;102594.06;5021742;28;20486;-59
2021/12/13 08:12:40;;;;;;;24.40;14.52;;;;;;;7.92;100.00;102593.13;5021888;28;20053;-59
2021/12/13 08:15:13;;;;;;;23.20;14.32;;;;;;;7.93;100.00;102600.13;5026825;28;20098;-59
2021/12/13 08:17:43;;;;;;;22.85;14.00;;;;;;;7.92;100.00;102597.56;5029070;28;20025;-59
2021/12/13 08:20:12;;;;;;;22.88;14.35;;;;;;;7.93;100.00;102600.13;5027029;28;20026;-59
2021/12/13 08:22:44;;;;;;;22.83;14.00;;;;;;;7.95;100.00;102607.94;5028220;28;20029;-59
2021/12/13 08:25:17;;;;;;;22.35;13.63;;;;;;;7.94;100.00;102612.38;5027590;28;20063;-59
2021/12/13 08:27:50;;;;;;;22.02;13.90;;;;;;;7.95;100.00;102600.03;5025476;28;20087;-62
2021/12/13 08:30:21;;;;;;;21.00;14.05;;;;;;;7.94;100.00;102601.81;5026898;28;20049;-62
2021/12/13 08:33:16;;;;;;;22.77;13.43;;;;;;;7.99;100.00;102603.31;5023797;28;20036;-62
2021/12/13 08:36:09;;;;;;;23.50;14.55;;;;;;;7.98;100.00;102601.63;5001806;28;20172;-62
2021/12/13 08:38:43;;;;;;;24.05;14.25;;;;;;;7.93;100.00;102602.75;5002343;28;20116;-62
2021/12/13 08:41:14;;;;;;;22.73;13.88;;;;;;;7.94;100.00;102607.09;5027402;28;20120;-62
2021/12/13 08:43:58;;;;;;;26.60;13.98;;;;;;;7.94;100.00;102606.22;5026450;28;20037;-62
2021/12/13 08:46:31;;;;;;;24.35;14.77;;;;;;;7.96;100.00;102608.78;5029190;28;20059;-62
2021/12/13 08:48:57;;;;;;;24.90;14.27;;;;;;;7.96;100.00;102608.78;5032054;28;20033;-62
2021/12/13 08:51:27;;;;;;;23.83;14.07;;;;;;;7.94;100.00;102595.66;5032857;28;20390;-62
2021/12/13 08:54:06;;;;;;;23.42;15.02;;;;;;;7.97;100.00;102602.53;5031259;28;20021;-62
2021/12/13 08:56:40;;;;;;;22.58;15.05;;;;;;;7.92;100.00;102602.84;5026219;28;20505;-62
2021/12/13 08:59:12;;;;;;;23.30;15.57;;;;;;;7.93;100.00;102609.81;5028959;28;20125;-62
2021/12/13 09:02:01;;;;;;;20.93;14.00;;;;;;;7.94;100.00;102614.16;5024513;28;20030;-62
2021/12/13 09:04:32;;;;;;;23.13;14.57;;;;;;;7.91;100.00;102612.56;5023933;28;20053;-62
2021/12/13 09:07:02;;;;;;;23.58;14.43;;;;;;;7.92;100.00;102609.00;5028252;28;20036;-62
2021/12/13 09:09:28;;;;;;;22.20;14.23;;;;;;;7.93;100.00;102615.09;5029875;28;20044;-62
2021/12/13 09:12:00;;;;;;;23.98;14.65;;;;;;;7.90;100.00;102610.88;5031307;28;20034;-62
2021/12/13 09:14:39;;;;;;;23.40;13.50;;;;;;;7.92;100.00;102603.72;5030109;28;20091;-62
2021/12/13 09:17:26;;;;;;;21.20;14.23;;;;;;;7.99;100.00;102614.69;5033319;28;20474;-62
2021/12/13 09:20:01;;;;;;;23.30;14.40;;;;;;;7.98;100.00;102620.09;5031971;28;20039;-62
2021/12/13 09:22:41;;;;;;;22.88;14.10;;;;;;;7.99;100.00;102622.63;5029022;28;20022;-62
2021/12/13 09:25:16;;;;;;;20.98;13.55;;;;;;;7.99;99.77;102621.81;5027653;28;20036;-59
2021/12/13 09:27:41;;;;;;;22.70;13.95;;;;;;;7.98;100.00;102622.75;5029953;28;20033;-59
2021/12/13 09:30:18;;;;;;;22.98;14.30;;;;;;;8.01;100.00;102628.69;5029590;28;20029;-58
2021/12/13 09:32:49;;;;;;;22.08;13.93;;;;;;;8.02;100.00;102629.50;5028078;28;20052;-59
2021/12/13 09:35:17;;;;;;;19.88;13.52;;;;;;;8.00;99.58;102639.34;5030972;28;20025;-58
2021/12/13 09:37:44;;;;;;;23.42;13.82;;;;;;;8.01;99.74;102646.31;5030250;28;20032;-59
2021/12/13 09:40:10;;;;;;;23.45;13.60;;;;;;;7.99;100.00;102645.56;5030376;28;20037;-59
2021/12/13 09:42:58;;;;;;;20.25;12.95;;;;;;;8.05;99.71;102653.09;5030320;28;20033;-58
2021/12/13 09:45:32;;;;;;;19.63;13.05;;;;;;;7.98;99.55;102654.44;5026071;28;20352;-59
2021/12/13 09:47:58;;;;;;;19.40;12.82;;;;;;;8.04;99.60;102669.91;5023917;28;20091;-58
2021/12/13 09:50:29;;;;;;;19.98;12.52;;;;;;;7.99;99.01;102666.72;5027559;28;20033;-59
2021/12/13 09:53:06;;;;;;;19.25;12.30;;;;;;;8.03;99.29;102673.47;5025940;28;20037;-58
2021/12/13 09:55:36;;;;;;;20.48;12.98;;;;;;;8.00;99.48;102677.16;5026105;28;20543;-58
2021/12/13 09:58:06;;;;;;;18.60;11.85;;;;;;;8.02;99.53;102683.22;5023593;28;20121;-59
2021/12/13 10:00:41;;;;;;;19.88;12.10;;;;;;;8.05;99.37;102684.81;5028692;28;20087;-59
2021/12/13 10:03:12;;;;;;;19.02;11.98;;;;;;;8.07;99.31;102685.53;5023435;28;20032;-58
2021/12/13 10:05:42;;;;;;;23.40;12.23;;;;;;;8.06;98.92;102689.13;5025012;28;20064;-58
2021/12/13 10:08:13;;;;;;;18.75;12.00;;;;;;;8.06;99.29;102686.50;5027553;28;20038;-59
2021/12/13 10:10:46;;;;;;;18.58;12.15;;;;;;;8.09;98.75;102694.22;5029759;28;20045;-59
2021/12/13 10:13:17;;;;;;;;;;;;;;;8.15;99.63;102687.69;5025335;28;20034;-58
2021/12/13 10:15:47;;;;;;;17.80;11.90;;;;;;;8.07;99.14;102683.75;5024356;28;19917;-59
2021/12/13 10:18:17;;;;;;;19.13;11.70;;;;;;;8.05;98.67;102672.44;5024354;28;20466;-58
2021/12/13 10:20:50;;;;;;;17.58;11.45;;;;;;;8.08;98.58;102674.03;5023551;28;20037;-58
2021/12/13 10:23:19;;;;;;;17.38;11.45;;;;;;;8.08;98.59;102671.38;5024287;28;20044;-58
2021/12/13 10:25:48;;;;;;;17.90;10.63;;;;;;;8.07;98.89;102664.41;5023337;28;20482;-59
2021/12/13 10:28:20;;;;;;;15.73;10.23;;;;;;;8.05;98.49;102676.88;5024744;28;20041;-58
2021/12/13 10:30:51;;;;;;;15.13;10.55;;;;;;;8.09;98.34;102678.34;5030723;28;20040;-58
2021/12/13 10:33:18;;;;;;;17.52;10.07;;;;;;;8.10;98.38;102679.22;5024393;28;20025;-59
2021/12/13 10:35:45;;;;;;;16.15;10.45;;;;;;;8.11;98.36;102673.84;5025151;28;20434;-59
2021/12/13 10:38:20;;;;;;;16.08;10.10;;;;;;;8.08;98.38;102668.75;5024337;28;20037;-59
2021/12/13 10:40:54;;;;;;;16.88;10.02;;;;;;;8.08;98.04;102660.81;5024412;28;20116;-59
2021/12/13 10:43:32;;;;;;;14.98;9.35;;;;;;;8.10;97.90;102664.22;5021943;28;20091;-59
2021/12/13 10:46:11;;;;;;;15.60;9.30;;;;;;;8.11;97.61;102660.63;5027894;28;20444;-58
2021/12/13 10:48:44;;;;;;;15.68;9.15;;;;;;;8.09;97.46;102657.22;5027324;28;20064;-59
2021/12/13 10:51:14;;;;;;;13.73;9.02;;;;;;;8.11;97.41;102660.63;5027438;28;20029;-59
2021/12/13 10:53:41;;;;;;;12.63;8.73;;;;;;;8.09;96.79;102651.94;5022366;28;20029;-59
2021/12/13 10:56:12;;;;;;;14.25;8.88;;;;;;;8.16;96.50;102663.81;5024480;28;20040;-59
2021/12/13 10:58:43;;;;;;;12.80;8.93;;;;;;;8.14;97.12;102675.44;5021948;28;20379;-59
2021/12/13 11:01:19;;;;;;;12.93;8.98;;;;;;;8.12;97.18;102666.75;5018944;28;20030;-58
2021/12/13 11:03:45;;;;;;;14.90;9.27;;;;;;;8.15;97.19;102671.84;5022331;28;20045;-58
2021/12/13 11:06:14;;;;;;;14.88;9.65;;;;;;;8.15;97.26;102666.56;5019990;28;20036;-59
2021/12/13 11:08:42;;;;;;;16.00;8.93;;;;;;;8.16;96.80;102661.19;5021948;28;20087;-59
2021/12/13 11:11:21;;;;;;;15.35;8.77;;;;;;;8.16;96.96;102655.91;5024208;28;20391;-59
2021/12/13 11:13:50;;;;;;;13.77;8.52;;;;;;;8.17;96.77;102659.38;5020243;28;20033;-59
2021/12/13 11:16:20;;;;;;;12.63;8.70;;;;;;;8.14;97.00;102647.19;5020027;28;20025;-59
2021/12/13 11:18:46;;;;;;;14.13;9.25;;;;;;;8.17;96.88;102646.16;5021483;28;20041;-58
2021/12/13 11:21:16;;;;;;;12.43;8.90;;;;;;;8.15;96.63;102648.06;5020249;28;20088;-59
2021/12/13 11:23:42;;;;;;;14.45;8.88;;;;;;;8.16;96.68;102647.97;5020763;28;20038;-58
2021/12/13 11:26:10;;;;;;;12.23;8.85;;;;;;;8.15;96.76;102640.97;5025260;28;20788;-59
2021/12/13 11:28:37;;;;;;;12.75;8.70;;;;;;;8.16;96.45;102653.25;5026718;28;20037;-59
2021/12/13 11:31:15;;;;;;;13.25;8.73;;;;;;;8.19;96.65;102650.38;5024935;28;20027;-59
2021/12/13 11:34:01;;;;;;;13.20;8.20;;;;;;;8.22;96.41;102652.00;5017589;28;20035;-59
2021/12/13 11:36:39;;;;;;;10.65;7.80;;;;;;;8.20;95.24;102644.16;5023532;28;20083;-58
2021/12/13 11:39:32;;;;;;;13.07;8.25;;;;;;;8.24;95.97;102646.59;5026070;28;20029;-59
2021/12/13 11:42:12;;;;;;;;;;;;;;;8.30;97.24;102648.84;5024316;28;20065;-58
2021/12/13 11:45:02;;;;;;;13.13;8.20;;;;;;;8.25;95.96;102646.50;5027829;28;20002;-57
2021/12/13 11:48:01;;;;;;;15.23;8.45;;;;;;;8.28;95.84;102642.78;5028803;28;20044;-58
2021/12/13 11:51:02;;;;;;;10.98;7.80;;;;;;;8.30;95.28;102648.84;5028814;28;20056;-58
2021/12/13 11:54:07;;;;;;;10.55;7.90;;;;;;;8.31;95.43;102647.88;5021746;28;20036;-57